IBS38KN LEMD-LEAS
Flight info
| Callsign | IBS38KN |
|---|---|
| Flight time | 0h 48m |
| Altitude | 30000 |
| Route | ZMR DCT VETAN DCT OMESI/N0386F240 M30 XONDA |
| Aircraft | A320/M-SDE3FGHIRWY/LB1 |
Departure
| Time | 2026-05-08 15:20 |
|---|---|
| Airport | Adolfo Suárez Madrid–Barajas Airport (LEMD) |
Arrival
| Time | 2026-05-08 16:08 |
|---|---|
| Airport | Asturias Airport (LEAS) |
| Time | Latitude | Longitude | Altitude | Speed | Heading |
|---|---|---|---|---|---|
| 2026-05-08 14:52 | 40.49401 | -3.58981 | 1981 ft | 0 kts | 268° |
| 2026-05-08 15:07 | 40.49401 | -3.58969 | 1980 ft | 2 kts | 265° |
| 2026-05-08 15:08 | 40.49402 | -3.58948 | 1980 ft | 2 kts | 266° |
| 2026-05-08 15:08 | 40.49403 | -3.58933 | 1980 ft | 2 kts | 263° |
| 2026-05-08 15:08 | 40.49409 | -3.58906 | 1980 ft | 2 kts | 193° |
| 2026-05-08 15:08 | 40.49419 | -3.58904 | 1980 ft | 0 kts | 181° |
| 2026-05-08 15:11 | 40.49418 | -3.58904 | 1980 ft | 1 kts | 181° |
| 2026-05-08 15:11 | 40.49389 | -3.58904 | 1980 ft | 5 kts | 179° |
| 2026-05-08 15:11 | 40.49358 | -3.58904 | 1980 ft | 4 kts | 179° |
| 2026-05-08 15:12 | 40.49313 | -3.58903 | 1980 ft | 8 kts | 180° |
| 2026-05-08 15:12 | 40.49257 | -3.58893 | 1980 ft | 10 kts | 151° |
| 2026-05-08 15:12 | 40.49241 | -3.58815 | 1980 ft | 8 kts | 88° |
| 2026-05-08 15:12 | 40.49243 | -3.58746 | 1980 ft | 7 kts | 90° |
| 2026-05-08 15:13 | 40.49242 | -3.58691 | 1980 ft | 6 kts | 90° |
| 2026-05-08 15:13 | 40.49242 | -3.58618 | 1980 ft | 7 kts | 90° |
| 2026-05-08 15:13 | 40.49242 | -3.58555 | 1980 ft | 7 kts | 89° |
| 2026-05-08 15:13 | 40.49243 | -3.58498 | 1980 ft | 6 kts | 89° |
| 2026-05-08 15:14 | 40.49243 | -3.58404 | 1980 ft | 11 kts | 90° |
| 2026-05-08 15:14 | 40.49243 | -3.58333 | 1980 ft | 6 kts | 89° |
| 2026-05-08 15:14 | 40.49244 | -3.58267 | 1980 ft | 7 kts | 89° |
| 2026-05-08 15:14 | 40.49244 | -3.58204 | 1980 ft | 7 kts | 90° |
| 2026-05-08 15:15 | 40.49245 | -3.58074 | 1980 ft | 23 kts | 89° |
| 2026-05-08 15:15 | 40.49245 | -3.57888 | 1980 ft | 20 kts | 90° |
| 2026-05-08 15:15 | 40.49245 | -3.57696 | 1980 ft | 22 kts | 88° |
| 2026-05-08 15:15 | 40.49267 | -3.57580 | 1980 ft | 0 kts | 61° |
| 2026-05-08 15:16 | 40.49268 | -3.57576 | 1980 ft | 4 kts | 61° |
| 2026-05-08 15:16 | 40.49320 | -3.57501 | 1980 ft | 12 kts | 41° |
| 2026-05-08 15:16 | 40.49389 | -3.57463 | 1980 ft | 9 kts | 359° |
| 2026-05-08 15:16 | 40.49395 | -3.57464 | 1980 ft | 0 kts | 358° |
| 2026-05-08 15:19 | 40.49461 | -3.57465 | 1980 ft | 41 kts | 0° |
| 2026-05-08 15:19 | 40.50055 | -3.57469 | 1981 ft | 126 kts | 360° |
| 2026-05-08 15:19 | 40.51150 | -3.57475 | 2075 ft | 180 kts | 359° |
| 2026-05-08 15:20 | 40.52438 | -3.57483 | 2689 ft | 185 kts | 359° |
| 2026-05-08 15:20 | 40.53722 | -3.57498 | 3321 ft | 186 kts | 359° |
| 2026-05-08 15:20 | 40.55084 | -3.57561 | 3621 ft | 206 kts | 350° |
| 2026-05-08 15:20 | 40.56332 | -3.58535 | 3982 ft | 219 kts | 307° |
| 2026-05-08 15:21 | 40.57213 | -3.60197 | 4576 ft | 223 kts | 308° |
| 2026-05-08 15:21 | 40.58264 | -3.61742 | 5123 ft | 229 kts | 313° |
| 2026-05-08 15:21 | 40.59454 | -3.63174 | 5760 ft | 234 kts | 320° |
| 2026-05-08 15:21 | 40.60727 | -3.64521 | 6534 ft | 236 kts | 321° |
| 2026-05-08 15:22 | 40.62030 | -3.65861 | 7249 ft | 239 kts | 321° |
| 2026-05-08 15:22 | 40.63432 | -3.67047 | 7923 ft | 243 kts | 336° |
| 2026-05-08 15:22 | 40.65065 | -3.67614 | 8533 ft | 251 kts | 354° |
| 2026-05-08 15:22 | 40.66883 | -3.67513 | 8804 ft | 275 kts | 6° |
| 2026-05-08 15:23 | 40.68859 | -3.67206 | 9191 ft | 293 kts | 6° |
| 2026-05-08 15:23 | 40.70906 | -3.66898 | 9859 ft | 299 kts | 6° |
| 2026-05-08 15:23 | 40.73009 | -3.66590 | 10331 ft | 314 kts | 6° |
| 2026-05-08 15:23 | 40.75260 | -3.66453 | 10489 ft | 336 kts | 353° |
| 2026-05-08 15:24 | 40.77529 | -3.67379 | 10869 ft | 348 kts | 330° |
| 2026-05-08 15:24 | 40.79405 | -3.69399 | 11436 ft | 352 kts | 308° |
| 2026-05-08 15:24 | 40.80706 | -3.72140 | 12027 ft | 355 kts | 298° |
| 2026-05-08 15:24 | 40.81916 | -3.75020 | 12622 ft | 359 kts | 298° |
| 2026-05-08 15:25 | 40.83119 | -3.77917 | 13170 ft | 362 kts | 298° |
| 2026-05-08 15:25 | 40.84332 | -3.80846 | 13707 ft | 365 kts | 298° |
| 2026-05-08 15:25 | 40.85560 | -3.83806 | 14214 ft | 369 kts | 298° |
| 2026-05-08 15:25 | 40.86802 | -3.86798 | 14703 ft | 372 kts | 298° |
| 2026-05-08 15:26 | 40.88044 | -3.89781 | 15169 ft | 375 kts | 298° |
| 2026-05-08 15:26 | 40.89309 | -3.92816 | 15619 ft | 378 kts | 298° |
| 2026-05-08 15:26 | 40.90582 | -3.95870 | 16055 ft | 381 kts | 298° |
| 2026-05-08 15:26 | 40.91863 | -3.98955 | 16476 ft | 384 kts | 298° |
| 2026-05-08 15:27 | 40.93150 | -4.02055 | 16882 ft | 387 kts | 298° |
| 2026-05-08 15:27 | 40.94452 | -4.05194 | 17269 ft | 389 kts | 298° |
| 2026-05-08 15:27 | 40.95758 | -4.08349 | 17635 ft | 392 kts | 298° |
| 2026-05-08 15:27 | 40.97070 | -4.11520 | 17984 ft | 394 kts | 298° |
| 2026-05-08 15:28 | 40.98389 | -4.14715 | 18322 ft | 397 kts | 298° |
| 2026-05-08 15:28 | 40.99714 | -4.17925 | 18643 ft | 399 kts | 298° |
| 2026-05-08 15:28 | 41.01045 | -4.21158 | 18953 ft | 401 kts | 298° |
| 2026-05-08 15:28 | 41.02364 | -4.24427 | 19250 ft | 403 kts | 297° |
| 2026-05-08 15:29 | 41.03634 | -4.27744 | 19538 ft | 405 kts | 296° |
| 2026-05-08 15:29 | 41.04918 | -4.31075 | 19804 ft | 407 kts | 301° |
| 2026-05-08 15:29 | 41.06710 | -4.33975 | 20053 ft | 410 kts | 317° |
| 2026-05-08 15:29 | 41.08846 | -4.36490 | 20292 ft | 412 kts | 318° |
| 2026-05-08 15:30 | 41.10987 | -4.38968 | 20523 ft | 413 kts | 319° |
| 2026-05-08 15:30 | 41.13163 | -4.41470 | 20744 ft | 415 kts | 319° |
| 2026-05-08 15:30 | 41.15347 | -4.43981 | 20956 ft | 417 kts | 319° |
| 2026-05-08 15:30 | 41.17540 | -4.46508 | 21157 ft | 418 kts | 319° |
| 2026-05-08 15:31 | 41.19736 | -4.49045 | 21353 ft | 420 kts | 319° |
| 2026-05-08 15:31 | 41.21943 | -4.51604 | 21540 ft | 421 kts | 318° |
| 2026-05-08 15:31 | 41.24151 | -4.54172 | 21729 ft | 422 kts | 318° |
| 2026-05-08 15:31 | 41.26368 | -4.56754 | 21908 ft | 424 kts | 318° |
| 2026-05-08 15:32 | 41.28591 | -4.59340 | 22075 ft | 425 kts | 318° |
| 2026-05-08 15:32 | 41.30817 | -4.61934 | 22235 ft | 426 kts | 318° |
| 2026-05-08 15:32 | 41.33046 | -4.64535 | 22386 ft | 427 kts | 318° |
| 2026-05-08 15:32 | 41.35285 | -4.67151 | 22540 ft | 429 kts | 318° |
| 2026-05-08 15:33 | 41.37528 | -4.69771 | 22682 ft | 430 kts | 318° |
| 2026-05-08 15:33 | 41.39019 | -4.71515 | 22805 ft | 429 kts | 318° |
| 2026-05-08 15:33 | 41.41209 | -4.74073 | 23730 ft | 407 kts | 318° |
| 2026-05-08 15:33 | 41.43281 | -4.76499 | 24724 ft | 386 kts | 318° |
| 2026-05-08 15:34 | 41.45849 | -4.79518 | 25908 ft | 361 kts | 318° |
| 2026-05-08 15:34 | 41.47097 | -4.80987 | 26222 ft | 357 kts | 318° |
| 2026-05-08 15:34 | 41.48956 | -4.83171 | 26509 ft | 355 kts | 318° |
| 2026-05-08 15:34 | 41.50818 | -4.85359 | 26710 ft | 356 kts | 318° |
| 2026-05-08 15:35 | 41.52682 | -4.87548 | 26901 ft | 358 kts | 318° |
| 2026-05-08 15:35 | 41.54554 | -4.89748 | 27083 ft | 359 kts | 318° |
| 2026-05-08 15:35 | 41.56435 | -4.91964 | 27221 ft | 362 kts | 318° |
| 2026-05-08 15:35 | 41.58327 | -4.94200 | 27347 ft | 365 kts | 318° |
| 2026-05-08 15:36 | 41.60225 | -4.96444 | 27472 ft | 367 kts | 318° |
| 2026-05-08 15:36 | 41.62118 | -4.98683 | 27596 ft | 370 kts | 318° |
| 2026-05-08 15:36 | 41.64135 | -5.00901 | 27720 ft | 372 kts | 327° |
| 2026-05-08 15:36 | 41.66354 | -5.02625 | 27856 ft | 374 kts | 330° |
| 2026-05-08 15:37 | 41.68623 | -5.04345 | 27983 ft | 377 kts | 330° |
| 2026-05-08 15:37 | 41.70919 | -5.06083 | 28010 ft | 382 kts | 330° |
| 2026-05-08 15:37 | 41.75615 | -5.09635 | 28010 ft | 393 kts | 330° |
| 2026-05-08 15:38 | 41.80432 | -5.13285 | 28009 ft | 402 kts | 330° |
| 2026-05-08 15:38 | 41.85358 | -5.17035 | 28009 ft | 411 kts | 330° |
| 2026-05-08 15:39 | 41.90374 | -5.20845 | 28009 ft | 418 kts | 330° |
| 2026-05-08 15:39 | 41.95473 | -5.24718 | 28009 ft | 424 kts | 330° |
| 2026-05-08 15:40 | 42.00637 | -5.28663 | 28009 ft | 429 kts | 330° |
| 2026-05-08 15:40 | 42.05835 | -5.32631 | 28009 ft | 434 kts | 330° |
| 2026-05-08 15:41 | 42.11110 | -5.36673 | 28009 ft | 438 kts | 330° |
| 2026-05-08 15:41 | 42.16375 | -5.40722 | 28009 ft | 442 kts | 330° |
| 2026-05-08 15:42 | 42.21770 | -5.44872 | 28009 ft | 445 kts | 330° |
| 2026-05-08 15:42 | 42.27164 | -5.49026 | 28009 ft | 448 kts | 330° |
| 2026-05-08 15:43 | 42.29876 | -5.51123 | 27987 ft | 450 kts | 330° |
| 2026-05-08 15:43 | 42.32587 | -5.53220 | 27727 ft | 447 kts | 330° |
| 2026-05-08 15:43 | 42.35263 | -5.55291 | 27208 ft | 441 kts | 330° |
| 2026-05-08 15:43 | 42.37880 | -5.57315 | 26662 ft | 436 kts | 330° |
| 2026-05-08 15:44 | 42.40499 | -5.59346 | 26119 ft | 431 kts | 330° |
| 2026-05-08 15:44 | 42.43083 | -5.61350 | 25604 ft | 425 kts | 330° |
| 2026-05-08 15:44 | 42.45634 | -5.63330 | 25092 ft | 420 kts | 330° |
| 2026-05-08 15:44 | 42.48147 | -5.65281 | 24597 ft | 414 kts | 330° |
| 2026-05-08 15:45 | 42.50632 | -5.67213 | 24102 ft | 409 kts | 329° |
| 2026-05-08 15:45 | 42.53083 | -5.69121 | 23607 ft | 404 kts | 329° |
| 2026-05-08 15:45 | 42.55503 | -5.71011 | 23118 ft | 400 kts | 329° |
| 2026-05-08 15:45 | 42.57904 | -5.72886 | 22627 ft | 396 kts | 329° |
| 2026-05-08 15:46 | 42.60279 | -5.74745 | 22143 ft | 392 kts | 329° |
| 2026-05-08 15:46 | 42.62638 | -5.76593 | 21651 ft | 389 kts | 329° |
| 2026-05-08 15:46 | 42.64976 | -5.78424 | 21159 ft | 386 kts | 329° |
| 2026-05-08 15:46 | 42.67296 | -5.80240 | 20661 ft | 384 kts | 329° |
| 2026-05-08 15:47 | 42.69602 | -5.82045 | 20167 ft | 382 kts | 329° |
| 2026-05-08 15:47 | 42.71899 | -5.83839 | 19670 ft | 379 kts | 330° |
| 2026-05-08 15:47 | 42.74297 | -5.85300 | 19180 ft | 377 kts | 341° |
| 2026-05-08 15:47 | 42.76846 | -5.86129 | 18719 ft | 375 kts | 352° |
| 2026-05-08 15:48 | 42.81971 | -5.87049 | 17804 ft | 369 kts | 352° |
| 2026-05-08 15:48 | 42.84518 | -5.87502 | 17353 ft | 369 kts | 352° |
| 2026-05-08 15:48 | 42.87056 | -5.87940 | 16903 ft | 367 kts | 352° |
| 2026-05-08 15:49 | 42.89587 | -5.88370 | 16452 ft | 365 kts | 352° |
| 2026-05-08 15:49 | 42.92106 | -5.88794 | 16000 ft | 363 kts | 353° |
| 2026-05-08 15:49 | 42.94606 | -5.89219 | 15548 ft | 361 kts | 352° |
| 2026-05-08 15:49 | 42.97088 | -5.89645 | 15097 ft | 358 kts | 352° |
| 2026-05-08 15:50 | 42.99515 | -5.90063 | 14658 ft | 356 kts | 352° |
| 2026-05-08 15:50 | 43.01965 | -5.90488 | 14218 ft | 353 kts | 352° |
| 2026-05-08 15:50 | 43.04410 | -5.90708 | 13772 ft | 352 kts | 2° |
| 2026-05-08 15:50 | 43.06817 | -5.90203 | 13327 ft | 350 kts | 15° |
| 2026-05-08 15:51 | 43.09066 | -5.88975 | 12878 ft | 348 kts | 28° |
| 2026-05-08 15:51 | 43.11161 | -5.87337 | 12433 ft | 345 kts | 30° |
| 2026-05-08 15:51 | 43.13238 | -5.85708 | 11986 ft | 343 kts | 30° |
| 2026-05-08 15:51 | 43.15283 | -5.84106 | 11539 ft | 332 kts | 30° |
| 2026-05-08 15:52 | 43.17249 | -5.82570 | 11120 ft | 318 kts | 30° |
| 2026-05-08 15:52 | 43.19132 | -5.81099 | 10713 ft | 306 kts | 30° |
| 2026-05-08 15:52 | 43.20982 | -5.79648 | 10315 ft | 306 kts | 30° |
| 2026-05-08 15:52 | 43.22814 | -5.78208 | 10202 ft | 303 kts | 30° |
| 2026-05-08 15:53 | 43.24636 | -5.76775 | 10113 ft | 302 kts | 30° |
| 2026-05-08 15:53 | 43.26513 | -5.75479 | 9982 ft | 303 kts | 20° |
| 2026-05-08 15:53 | 43.28506 | -5.74550 | 9584 ft | 302 kts | 18° |
| 2026-05-08 15:53 | 43.30495 | -5.73647 | 9193 ft | 300 kts | 18° |
| 2026-05-08 15:54 | 43.32473 | -5.72751 | 8803 ft | 299 kts | 18° |
| 2026-05-08 15:54 | 43.34436 | -5.71858 | 8409 ft | 293 kts | 18° |
| 2026-05-08 15:54 | 43.36321 | -5.70993 | 8079 ft | 278 kts | 18° |
| 2026-05-08 15:54 | 43.38095 | -5.70178 | 7853 ft | 261 kts | 18° |
| 2026-05-08 15:55 | 43.39781 | -5.69405 | 7518 ft | 251 kts | 18° |
| 2026-05-08 15:55 | 43.43042 | -5.67910 | 6827 ft | 247 kts | 18° |
| 2026-05-08 15:55 | 43.44684 | -5.67159 | 6466 ft | 250 kts | 18° |
| 2026-05-08 15:56 | 43.46336 | -5.66411 | 6134 ft | 250 kts | 18° |
| 2026-05-08 15:56 | 43.47951 | -5.65589 | 5905 ft | 244 kts | 29° |
| 2026-05-08 15:56 | 43.49172 | -5.64134 | 5912 ft | 230 kts | 55° |
| 2026-05-08 15:56 | 43.49793 | -5.62205 | 5932 ft | 214 kts | 80° |
| 2026-05-08 15:57 | 43.49794 | -5.60275 | 5944 ft | 192 kts | 102° |
| 2026-05-08 15:57 | 43.49347 | -5.58698 | 5926 ft | 165 kts | 122° |
| 2026-05-08 15:57 | 43.48636 | -5.57544 | 5919 ft | 155 kts | 140° |
| 2026-05-08 15:57 | 43.47735 | -5.56759 | 5905 ft | 154 kts | 157° |
| 2026-05-08 15:58 | 43.46700 | -5.56370 | 5647 ft | 153 kts | 175° |
| 2026-05-08 15:58 | 43.45649 | -5.56429 | 5396 ft | 150 kts | 192° |
| 2026-05-08 15:58 | 43.44643 | -5.56806 | 5202 ft | 153 kts | 198° |
| 2026-05-08 15:58 | 43.43518 | -5.57310 | 5151 ft | 181 kts | 199° |
| 2026-05-08 15:59 | 43.42329 | -5.57975 | 5146 ft | 187 kts | 214° |
| 2026-05-08 15:59 | 43.41469 | -5.59287 | 5146 ft | 187 kts | 245° |
| 2026-05-08 15:59 | 43.41262 | -5.61036 | 5148 ft | 188 kts | 278° |
| 2026-05-08 15:59 | 43.41809 | -5.62662 | 5154 ft | 196 kts | 312° |
| 2026-05-08 16:00 | 43.43002 | -5.63663 | 5161 ft | 208 kts | 339° |
| 2026-05-08 16:00 | 43.44370 | -5.64350 | 5152 ft | 210 kts | 339° |
| 2026-05-08 16:00 | 43.45708 | -5.65030 | 5142 ft | 196 kts | 339° |
| 2026-05-08 16:00 | 43.46871 | -5.65822 | 5081 ft | 181 kts | 321° |
| 2026-05-08 16:01 | 43.47654 | -5.67096 | 4960 ft | 169 kts | 297° |
| 2026-05-08 16:01 | 43.48038 | -5.68526 | 4889 ft | 153 kts | 287° |
| 2026-05-08 16:01 | 43.48358 | -5.69902 | 4851 ft | 150 kts | 287° |
| 2026-05-08 16:01 | 43.48678 | -5.71265 | 4817 ft | 149 kts | 287° |
| 2026-05-08 16:02 | 43.49002 | -5.72629 | 4713 ft | 150 kts | 287° |
| 2026-05-08 16:02 | 43.49323 | -5.73971 | 4553 ft | 149 kts | 287° |
| 2026-05-08 16:02 | 43.49647 | -5.75323 | 4369 ft | 148 kts | 287° |
| 2026-05-08 16:02 | 43.49970 | -5.76669 | 4177 ft | 148 kts | 287° |
| 2026-05-08 16:03 | 43.50309 | -5.78085 | 3988 ft | 162 kts | 287° |
| 2026-05-08 16:03 | 43.50671 | -5.79597 | 3756 ft | 169 kts | 288° |
| 2026-05-08 16:03 | 43.51041 | -5.81139 | 3529 ft | 170 kts | 288° |
| 2026-05-08 16:03 | 43.51410 | -5.82681 | 3299 ft | 169 kts | 287° |
| 2026-05-08 16:04 | 43.51778 | -5.84221 | 3081 ft | 168 kts | 287° |
| 2026-05-08 16:04 | 43.52131 | -5.85697 | 2860 ft | 158 kts | 288° |
| 2026-05-08 16:04 | 43.52468 | -5.87108 | 2649 ft | 151 kts | 287° |
| 2026-05-08 16:04 | 43.52791 | -5.88461 | 2457 ft | 146 kts | 287° |
| 2026-05-08 16:05 | 43.53104 | -5.89777 | 2263 ft | 144 kts | 287° |
| 2026-05-08 16:05 | 43.53415 | -5.91079 | 2085 ft | 143 kts | 287° |
| 2026-05-08 16:05 | 43.53724 | -5.92376 | 1888 ft | 142 kts | 287° |
| 2026-05-08 16:05 | 43.54031 | -5.93666 | 1701 ft | 141 kts | 287° |
| 2026-05-08 16:06 | 43.54337 | -5.94953 | 1516 ft | 141 kts | 287° |
| 2026-05-08 16:06 | 43.54641 | -5.96232 | 1326 ft | 140 kts | 287° |
| 2026-05-08 16:06 | 43.54946 | -5.97513 | 1143 ft | 140 kts | 287° |
| 2026-05-08 16:06 | 43.55250 | -5.98786 | 936 ft | 140 kts | 287° |
| 2026-05-08 16:07 | 43.55557 | -6.00039 | 791 ft | 139 kts | 287° |
| 2026-05-08 16:07 | 43.55851 | -6.01309 | 631 ft | 139 kts | 287° |
| 2026-05-08 16:07 | 43.56150 | -6.02579 | 428 ft | 139 kts | 288° |
| 2026-05-08 16:07 | 43.56377 | -6.03546 | 421 ft | 64 kts | 288° |
| 2026-05-08 16:08 | 43.56476 | -6.03962 | 419 ft | 35 kts | 288° |
| 2026-05-08 16:08 | 43.56494 | -6.04218 | 420 ft | 20 kts | 263° |
| 2026-05-08 16:08 | 43.56443 | -6.04365 | 421 ft | 16 kts | 200° |
| 2026-05-08 16:08 | 43.56384 | -6.04275 | 421 ft | 16 kts | 110° |
| 2026-05-08 16:09 | 43.56338 | -6.04086 | 421 ft | 22 kts | 108° |
| 2026-05-08 16:09 | 43.56304 | -6.03944 | 421 ft | 24 kts | 108° |
| 2026-05-08 16:09 | 43.56233 | -6.03641 | 421 ft | 26 kts | 107° |
| 2026-05-08 16:09 | 43.56177 | -6.03395 | 421 ft | 28 kts | 110° |
| 2026-05-08 16:10 | 43.56119 | -6.03231 | 421 ft | 11 kts | 153° |
| 2026-05-08 16:10 | 43.56055 | -6.03234 | 421 ft | 7 kts | 213° |
| 2026-05-08 16:10 | 43.56023 | -6.03276 | 421 ft | 6 kts | 199° |
| 2026-05-08 16:10 | 43.56010 | -6.03272 | 421 ft | 0 kts | 155° |